NJE304H ELLX-EDDH
Flight info
| Callsign | NJE304H |
|---|---|
| Flight time | 1h 30m |
| Altitude | 39000 |
| Route | DIK N853 HMM M170 BASUM Y850 MUBZI M105 RIBSO |
| Aircraft | CL60/M-SBDE1E2E3FGHIJ1J4J5J7M3RWXYZ/LB1V1D1 |
Departure
| Time | 2026-04-30 18:51 |
|---|---|
| Airport | Luxembourg-Findel International Airport (ELLX) |
Arrival
| Time | 2026-04-30 20:21 |
|---|---|
| Airport | Hamburg Helmut Schmidt Airport (EDDH) |
| Time | Latitude | Longitude | Altitude | Speed | Heading |
|---|---|---|---|---|---|
| 2026-04-30 18:09 | 49.62996 | 6.21070 | 1234 ft | 0 kts | 64° |
| 2026-04-30 18:45 | 49.62861 | 6.20954 | 1235 ft | 13 kts | 244° |
| 2026-04-30 18:45 | 49.62832 | 6.20858 | 1236 ft | 11 kts | 244° |
| 2026-04-30 18:45 | 49.62785 | 6.20733 | 1235 ft | 15 kts | 227° |
| 2026-04-30 18:46 | 49.62686 | 6.20609 | 1234 ft | 20 kts | 219° |
| 2026-04-30 18:46 | 49.62586 | 6.20441 | 1229 ft | 23 kts | 228° |
| 2026-04-30 18:46 | 49.62492 | 6.20270 | 1223 ft | 20 kts | 238° |
| 2026-04-30 18:46 | 49.62453 | 6.20165 | 1219 ft | 4 kts | 240° |
| 2026-04-30 18:47 | 49.62420 | 6.20074 | 1215 ft | 14 kts | 240° |
| 2026-04-30 18:47 | 49.62356 | 6.19904 | 1209 ft | 21 kts | 239° |
| 2026-04-30 18:47 | 49.62276 | 6.19691 | 1200 ft | 25 kts | 240° |
| 2026-04-30 18:47 | 49.62219 | 6.19555 | 1194 ft | 12 kts | 206° |
| 2026-04-30 18:48 | 49.62183 | 6.19556 | 1194 ft | 0 kts | 154° |
| 2026-04-30 18:49 | 49.62182 | 6.19556 | 1194 ft | 0 kts | 154° |
| 2026-04-30 18:49 | 49.62159 | 6.19573 | 1194 ft | 8 kts | 150° |
| 2026-04-30 18:49 | 49.62101 | 6.19627 | 1195 ft | 10 kts | 148° |
| 2026-04-30 18:49 | 49.62100 | 6.19687 | 1196 ft | 0 kts | 56° |
| 2026-04-30 18:51 | 49.62110 | 6.19711 | 1197 ft | 16 kts | 58° |
| 2026-04-30 18:51 | 49.62294 | 6.20211 | 1218 ft | 98 kts | 59° |
| 2026-04-30 18:51 | 49.62765 | 6.21484 | 1350 ft | 165 kts | 62° |
| 2026-04-30 18:51 | 49.63398 | 6.23019 | 2240 ft | 179 kts | 59° |
| 2026-04-30 18:52 | 49.64079 | 6.24707 | 3020 ft | 195 kts | 67° |
| 2026-04-30 18:52 | 49.64762 | 6.26624 | 3339 ft | 209 kts | 66° |
| 2026-04-30 18:52 | 49.65469 | 6.28607 | 3579 ft | 208 kts | 66° |
| 2026-04-30 18:52 | 49.66175 | 6.30525 | 3926 ft | 205 kts | 66° |
| 2026-04-30 18:53 | 49.66882 | 6.32438 | 4419 ft | 209 kts | 65° |
| 2026-04-30 18:53 | 49.67611 | 6.34412 | 4926 ft | 212 kts | 65° |
| 2026-04-30 18:53 | 49.68340 | 6.36384 | 5427 ft | 215 kts | 65° |
| 2026-04-30 18:53 | 49.69208 | 6.38293 | 5926 ft | 225 kts | 47° |
| 2026-04-30 18:54 | 49.70583 | 6.39580 | 6443 ft | 242 kts | 25° |
| 2026-04-30 18:54 | 49.72371 | 6.39964 | 6938 ft | 276 kts | 358° |
| 2026-04-30 18:54 | 49.74209 | 6.38906 | 7440 ft | 298 kts | 326° |
| 2026-04-30 18:54 | 49.75605 | 6.36458 | 7967 ft | 305 kts | 306° |
| 2026-04-30 18:55 | 49.76814 | 6.33721 | 8487 ft | 319 kts | 306° |
| 2026-04-30 18:55 | 49.79309 | 6.28162 | 11414 ft | 319 kts | 307° |
| 2026-04-30 18:55 | 49.80629 | 6.25246 | 12017 ft | 349 kts | 307° |
| 2026-04-30 18:56 | 49.83545 | 6.18819 | 13879 ft | 375 kts | 307° |
| 2026-04-30 18:56 | 49.85311 | 6.15841 | 14937 ft | 378 kts | 323° |
| 2026-04-30 18:56 | 49.87561 | 6.13821 | 15922 ft | 378 kts | 342° |
| 2026-04-30 18:57 | 49.92732 | 6.12915 | 17823 ft | 384 kts | 358° |
| 2026-04-30 18:57 | 49.95343 | 6.11882 | 18732 ft | 395 kts | 342° |
| 2026-04-30 18:57 | 49.97947 | 6.10262 | 19604 ft | 401 kts | 341° |
| 2026-04-30 18:58 | 50.03165 | 6.06957 | 21257 ft | 411 kts | 341° |
| 2026-04-30 18:58 | 50.05876 | 6.05374 | 21860 ft | 420 kts | 343° |
| 2026-04-30 18:58 | 50.08655 | 6.03807 | 22250 ft | 426 kts | 343° |
| 2026-04-30 18:59 | 50.14223 | 6.00679 | 23017 ft | 423 kts | 343° |
| 2026-04-30 19:00 | 50.22643 | 5.95969 | 23954 ft | 431 kts | 343° |
| 2026-04-30 19:00 | 50.25506 | 5.94375 | 24212 ft | 432 kts | 343° |
| 2026-04-30 19:00 | 50.31215 | 5.91185 | 24281 ft | 435 kts | 343° |
| 2026-04-30 19:01 | 50.37127 | 5.90090 | 24641 ft | 433 kts | 12° |
| 2026-04-30 19:01 | 50.40062 | 5.90892 | 25387 ft | 434 kts | 13° |
| 2026-04-30 19:02 | 50.46029 | 5.92584 | 26951 ft | 435 kts | 13° |
| 2026-04-30 19:02 | 50.52010 | 5.94294 | 28120 ft | 441 kts | 13° |
| 2026-04-30 19:03 | 50.58126 | 5.96073 | 29126 ft | 448 kts | 13° |
| 2026-04-30 19:03 | 50.64283 | 5.97915 | 30048 ft | 453 kts | 15° |
| 2026-04-30 19:04 | 50.69842 | 6.02285 | 31226 ft | 443 kts | 34° |
| 2026-04-30 19:04 | 50.75033 | 6.07517 | 32406 ft | 439 kts | 34° |
| 2026-04-30 19:05 | 50.80135 | 6.12663 | 33558 ft | 433 kts | 34° |
| 2026-04-30 19:05 | 50.85227 | 6.17809 | 34572 ft | 430 kts | 34° |
| 2026-04-30 19:06 | 50.90263 | 6.22910 | 35350 ft | 429 kts | 34° |
| 2026-04-30 19:06 | 50.92791 | 6.25477 | 35710 ft | 428 kts | 34° |
| 2026-04-30 19:06 | 50.97810 | 6.30579 | 36397 ft | 427 kts | 34° |
| 2026-04-30 19:07 | 51.02813 | 6.35677 | 37121 ft | 426 kts | 34° |
| 2026-04-30 19:07 | 51.05297 | 6.38213 | 37552 ft | 424 kts | 34° |
| 2026-04-30 19:08 | 51.10248 | 6.43277 | 38301 ft | 423 kts | 34° |
| 2026-04-30 19:08 | 51.15195 | 6.48349 | 38964 ft | 422 kts | 34° |
| 2026-04-30 19:08 | 51.17643 | 6.50864 | 39241 ft | 422 kts | 34° |
| 2026-04-30 19:09 | 51.22584 | 6.55951 | 39325 ft | 429 kts | 34° |
| 2026-04-30 19:09 | 51.27685 | 6.61215 | 39325 ft | 435 kts | 34° |
| 2026-04-30 19:10 | 51.37820 | 6.71715 | 39326 ft | 435 kts | 34° |
| 2026-04-30 19:11 | 51.45389 | 6.79593 | 39330 ft | 433 kts | 34° |
| 2026-04-30 19:12 | 51.50424 | 6.84851 | 39338 ft | 433 kts | 34° |
| 2026-04-30 19:12 | 51.55443 | 6.90106 | 39335 ft | 433 kts | 34° |
| 2026-04-30 19:13 | 51.65535 | 7.00715 | 39345 ft | 432 kts | 34° |
| 2026-04-30 19:14 | 51.70544 | 7.06002 | 39350 ft | 432 kts | 34° |
| 2026-04-30 19:14 | 51.75543 | 7.11293 | 39355 ft | 432 kts | 34° |
| 2026-04-30 19:15 | 51.80574 | 7.16632 | 39356 ft | 432 kts | 34° |
| 2026-04-30 19:15 | 51.88094 | 7.24639 | 39366 ft | 432 kts | 34° |
| 2026-04-30 19:16 | 51.93067 | 7.29952 | 39365 ft | 432 kts | 34° |
| 2026-04-30 19:17 | 52.00581 | 7.38007 | 39369 ft | 431 kts | 34° |
| 2026-04-30 19:17 | 52.08049 | 7.46044 | 39378 ft | 431 kts | 34° |
| 2026-04-30 19:18 | 52.12211 | 7.50539 | 38965 ft | 434 kts | 34° |
| 2026-04-30 19:18 | 52.15540 | 7.54141 | 38310 ft | 429 kts | 34° |
| 2026-04-30 19:18 | 52.18020 | 7.56829 | 37770 ft | 423 kts | 34° |
| 2026-04-30 19:19 | 52.20430 | 7.59444 | 37231 ft | 422 kts | 34° |
| 2026-04-30 19:19 | 52.22883 | 7.62108 | 36684 ft | 421 kts | 33° |
| 2026-04-30 19:19 | 52.27739 | 7.67396 | 35590 ft | 423 kts | 34° |
| 2026-04-30 19:20 | 52.30180 | 7.70058 | 35045 ft | 424 kts | 34° |
| 2026-04-30 19:20 | 52.32634 | 7.72738 | 34514 ft | 426 kts | 34° |
| 2026-04-30 19:20 | 52.37572 | 7.78144 | 33424 ft | 429 kts | 34° |
| 2026-04-30 19:21 | 52.40051 | 7.80864 | 32877 ft | 431 kts | 34° |
| 2026-04-30 19:21 | 52.45047 | 7.86355 | 31783 ft | 434 kts | 34° |
| 2026-04-30 19:22 | 52.50047 | 7.91867 | 30692 ft | 436 kts | 34° |
| 2026-04-30 19:22 | 52.57575 | 8.00193 | 29055 ft | 437 kts | 34° |
| 2026-04-30 19:23 | 52.65052 | 8.08497 | 27413 ft | 426 kts | 34° |
| 2026-04-30 19:24 | 52.69879 | 8.13877 | 26584 ft | 419 kts | 35° |
| 2026-04-30 19:24 | 52.72294 | 8.16573 | 26208 ft | 417 kts | 35° |
| 2026-04-30 19:24 | 52.76953 | 8.21785 | 25449 ft | 392 kts | 35° |
| 2026-04-30 19:25 | 52.83425 | 8.29047 | 24336 ft | 363 kts | 35° |
| 2026-04-30 19:26 | 52.87491 | 8.33624 | 23588 ft | 347 kts | 35° |
| 2026-04-30 19:26 | 52.91401 | 8.38034 | 22842 ft | 333 kts | 36° |
| 2026-04-30 19:26 | 52.93288 | 8.40165 | 22470 ft | 327 kts | 36° |
| 2026-04-30 19:27 | 52.96973 | 8.44335 | 21720 ft | 315 kts | 36° |
| 2026-04-30 19:27 | 53.00523 | 8.48360 | 20969 ft | 305 kts | 36° |
| 2026-04-30 19:28 | 53.02270 | 8.50343 | 20602 ft | 300 kts | 36° |
| 2026-04-30 19:28 | 53.05572 | 8.54095 | 20410 ft | 273 kts | 36° |
| 2026-04-30 19:29 | 53.08573 | 8.57512 | 20396 ft | 261 kts | 36° |
| 2026-04-30 19:29 | 53.10022 | 8.59166 | 20399 ft | 262 kts | 36° |
| 2026-04-30 19:30 | 53.14600 | 8.64401 | 20401 ft | 263 kts | 36° |
| 2026-04-30 19:30 | 53.17631 | 8.67873 | 20408 ft | 263 kts | 37° |
| 2026-04-30 19:31 | 53.20633 | 8.71318 | 20425 ft | 262 kts | 37° |
| 2026-04-30 19:31 | 53.22154 | 8.73066 | 20420 ft | 263 kts | 37° |
| 2026-04-30 19:31 | 53.25160 | 8.76525 | 20413 ft | 262 kts | 37° |
| 2026-04-30 19:32 | 53.26683 | 8.78280 | 20418 ft | 262 kts | 37° |
| 2026-04-30 19:32 | 53.28192 | 8.80020 | 20417 ft | 262 kts | 37° |
| 2026-04-30 19:32 | 53.29690 | 8.81748 | 20419 ft | 262 kts | 37° |
| 2026-04-30 19:32 | 53.31179 | 8.83469 | 20418 ft | 263 kts | 37° |
| 2026-04-30 19:33 | 53.32700 | 8.85226 | 20418 ft | 263 kts | 37° |
| 2026-04-30 19:33 | 53.34203 | 8.86965 | 20420 ft | 262 kts | 36° |
| 2026-04-30 19:33 | 53.35824 | 8.88411 | 20418 ft | 264 kts | 26° |
| 2026-04-30 19:33 | 53.37516 | 8.89590 | 20419 ft | 264 kts | 26° |
| 2026-04-30 19:34 | 53.39229 | 8.90792 | 20418 ft | 264 kts | 26° |
| 2026-04-30 19:34 | 53.40927 | 8.91987 | 20421 ft | 264 kts | 26° |
| 2026-04-30 19:34 | 53.44296 | 8.94366 | 20420 ft | 264 kts | 26° |
| 2026-04-30 19:35 | 53.45991 | 8.95565 | 20420 ft | 264 kts | 26° |
| 2026-04-30 19:35 | 53.47703 | 8.96778 | 20420 ft | 264 kts | 26° |
| 2026-04-30 19:35 | 53.49384 | 8.97972 | 20420 ft | 264 kts | 26° |
| 2026-04-30 19:35 | 53.51058 | 8.99160 | 20283 ft | 257 kts | 26° |
| 2026-04-30 19:36 | 53.52713 | 9.00337 | 19880 ft | 259 kts | 26° |
| 2026-04-30 19:36 | 53.54324 | 9.01644 | 19499 ft | 258 kts | 35° |
| 2026-04-30 19:36 | 53.57232 | 9.05108 | 18839 ft | 254 kts | 38° |
| 2026-04-30 19:37 | 53.58661 | 9.06825 | 18520 ft | 253 kts | 38° |
| 2026-04-30 19:37 | 53.60093 | 9.08547 | 18201 ft | 251 kts | 38° |
| 2026-04-30 19:37 | 53.61515 | 9.10257 | 17861 ft | 250 kts | 38° |
| 2026-04-30 19:37 | 53.62932 | 9.11961 | 17535 ft | 249 kts | 38° |
| 2026-04-30 19:38 | 53.64317 | 9.13624 | 17428 ft | 245 kts | 38° |
| 2026-04-30 19:38 | 53.65728 | 9.15324 | 17418 ft | 249 kts | 38° |
| 2026-04-30 19:38 | 53.67144 | 9.17027 | 17418 ft | 249 kts | 38° |
| 2026-04-30 19:38 | 53.68560 | 9.18733 | 17420 ft | 249 kts | 38° |
| 2026-04-30 19:39 | 53.69975 | 9.20437 | 17424 ft | 249 kts | 38° |
| 2026-04-30 19:39 | 53.71410 | 9.22166 | 17421 ft | 250 kts | 38° |
| 2026-04-30 19:39 | 53.72830 | 9.23879 | 17431 ft | 249 kts | 38° |
| 2026-04-30 19:39 | 53.74236 | 9.25576 | 17430 ft | 250 kts | 38° |
| 2026-04-30 19:40 | 53.75647 | 9.27279 | 17428 ft | 249 kts | 38° |
| 2026-04-30 19:40 | 53.77068 | 9.28996 | 17424 ft | 249 kts | 38° |
| 2026-04-30 19:40 | 53.78461 | 9.30680 | 17432 ft | 249 kts | 38° |
| 2026-04-30 19:40 | 53.79884 | 9.32402 | 17435 ft | 249 kts | 38° |
| 2026-04-30 19:41 | 53.81303 | 9.34120 | 17433 ft | 249 kts | 38° |
| 2026-04-30 19:41 | 53.82604 | 9.36055 | 17436 ft | 247 kts | 54° |
| 2026-04-30 19:41 | 53.83323 | 9.38645 | 17436 ft | 246 kts | 77° |
| 2026-04-30 19:41 | 53.83311 | 9.41550 | 17440 ft | 250 kts | 101° |
| 2026-04-30 19:42 | 53.82523 | 9.44231 | 17446 ft | 259 kts | 126° |
| 2026-04-30 19:42 | 53.81078 | 9.46050 | 17433 ft | 270 kts | 152° |
| 2026-04-30 19:42 | 53.79183 | 9.46520 | 17231 ft | 285 kts | 184° |
| 2026-04-30 19:42 | 53.77314 | 9.45269 | 16983 ft | 288 kts | 207° |
| 2026-04-30 19:43 | 53.75724 | 9.43660 | 16749 ft | 288 kts | 207° |
| 2026-04-30 19:43 | 53.73979 | 9.41924 | 16500 ft | 287 kts | 207° |
| 2026-04-30 19:43 | 53.72267 | 9.40231 | 16444 ft | 285 kts | 207° |
| 2026-04-30 19:44 | 53.68808 | 9.36824 | 16435 ft | 287 kts | 207° |
| 2026-04-30 19:44 | 53.67059 | 9.35104 | 16432 ft | 287 kts | 206° |
| 2026-04-30 19:44 | 53.65458 | 9.33086 | 16427 ft | 290 kts | 229° |
| 2026-04-30 19:44 | 53.64552 | 9.30075 | 16351 ft | 292 kts | 259° |
| 2026-04-30 19:45 | 53.64623 | 9.26723 | 16105 ft | 285 kts | 292° |
| 2026-04-30 19:45 | 53.65639 | 9.24009 | 15871 ft | 270 kts | 323° |
| 2026-04-30 19:45 | 53.67250 | 9.22524 | 15616 ft | 258 kts | 352° |
| 2026-04-30 19:45 | 53.68986 | 9.22442 | 15433 ft | 245 kts | 17° |
| 2026-04-30 19:46 | 53.70547 | 9.23480 | 15430 ft | 242 kts | 33° |
| 2026-04-30 19:46 | 53.72008 | 9.24919 | 15425 ft | 244 kts | 34° |
| 2026-04-30 19:46 | 53.73477 | 9.26368 | 15425 ft | 244 kts | 33° |
| 2026-04-30 19:46 | 53.74954 | 9.27820 | 15421 ft | 245 kts | 33° |
| 2026-04-30 19:47 | 53.76440 | 9.29282 | 15429 ft | 245 kts | 33° |
| 2026-04-30 19:47 | 53.77411 | 9.30237 | 15417 ft | 246 kts | 33° |
| 2026-04-30 19:47 | 53.79386 | 9.32179 | 15420 ft | 245 kts | 33° |
| 2026-04-30 19:47 | 53.80865 | 9.33633 | 15415 ft | 246 kts | 33° |
| 2026-04-30 19:48 | 53.82198 | 9.35364 | 15419 ft | 240 kts | 53° |
| 2026-04-30 19:48 | 53.82934 | 9.37889 | 15424 ft | 238 kts | 77° |
| 2026-04-30 19:48 | 53.82941 | 9.40674 | 15430 ft | 241 kts | 101° |
| 2026-04-30 19:48 | 53.82209 | 9.43271 | 15425 ft | 248 kts | 125° |
| 2026-04-30 19:49 | 53.80832 | 9.45068 | 15426 ft | 258 kts | 152° |
| 2026-04-30 19:49 | 53.77238 | 9.44441 | 15283 ft | 282 kts | 206° |
| 2026-04-30 19:49 | 53.75531 | 9.42731 | 15024 ft | 282 kts | 207° |
| 2026-04-30 19:50 | 53.73860 | 9.41071 | 14784 ft | 279 kts | 206° |
| 2026-04-30 19:50 | 53.72193 | 9.39423 | 14540 ft | 277 kts | 206° |
| 2026-04-30 19:50 | 53.70520 | 9.37773 | 14424 ft | 275 kts | 206° |
| 2026-04-30 19:50 | 53.68854 | 9.36135 | 14422 ft | 277 kts | 206° |
| 2026-04-30 19:51 | 53.67201 | 9.34507 | 14421 ft | 277 kts | 207° |
| 2026-04-30 19:51 | 53.65760 | 9.32370 | 14427 ft | 282 kts | 234° |
| 2026-04-30 19:51 | 53.65105 | 9.29290 | 14433 ft | 282 kts | 268° |
| 2026-04-30 19:51 | 53.65464 | 9.26072 | 14436 ft | 276 kts | 301° |
| 2026-04-30 19:52 | 53.66692 | 9.23710 | 14440 ft | 265 kts | 333° |
| 2026-04-30 19:52 | 53.68387 | 9.22708 | 14437 ft | 253 kts | 2° |
| 2026-04-30 19:52 | 53.70073 | 9.23134 | 14441 ft | 244 kts | 26° |
| 2026-04-30 19:52 | 53.71582 | 9.24469 | 14255 ft | 245 kts | 34° |
| 2026-04-30 19:53 | 53.73047 | 9.25925 | 14001 ft | 243 kts | 34° |
| 2026-04-30 19:53 | 53.74501 | 9.27357 | 13751 ft | 241 kts | 34° |
| 2026-04-30 19:53 | 53.75948 | 9.28781 | 13508 ft | 239 kts | 34° |
| 2026-04-30 19:53 | 53.77368 | 9.30179 | 13442 ft | 237 kts | 34° |
| 2026-04-30 19:54 | 53.78801 | 9.31590 | 13442 ft | 239 kts | 34° |
| 2026-04-30 19:54 | 53.80249 | 9.33014 | 13439 ft | 239 kts | 33° |
| 2026-04-30 19:54 | 53.81670 | 9.34489 | 13437 ft | 237 kts | 42° |
| 2026-04-30 19:54 | 53.82654 | 9.36658 | 13437 ft | 232 kts | 68° |
| 2026-04-30 19:55 | 53.82937 | 9.39304 | 13440 ft | 233 kts | 92° |
| 2026-04-30 19:55 | 53.82480 | 9.41947 | 13442 ft | 238 kts | 117° |
| 2026-04-30 19:55 | 53.81333 | 9.43994 | 13442 ft | 246 kts | 143° |
| 2026-04-30 19:55 | 53.79681 | 9.44895 | 13441 ft | 258 kts | 173° |
| 2026-04-30 19:56 | 53.77907 | 9.44154 | 13441 ft | 268 kts | 204° |
| 2026-04-30 19:56 | 53.76290 | 9.42558 | 13433 ft | 271 kts | 207° |
| 2026-04-30 19:56 | 53.74659 | 9.40934 | 13429 ft | 271 kts | 206° |
| 2026-04-30 19:56 | 53.73024 | 9.39319 | 13427 ft | 272 kts | 206° |
| 2026-04-30 19:57 | 53.71392 | 9.37710 | 13422 ft | 272 kts | 206° |
| 2026-04-30 19:57 | 53.69755 | 9.36098 | 13419 ft | 272 kts | 206° |
| 2026-04-30 19:57 | 53.68117 | 9.34488 | 13417 ft | 272 kts | 206° |
| 2026-04-30 19:57 | 53.66627 | 9.32532 | 13415 ft | 276 kts | 230° |
| 2026-04-30 19:58 | 53.65877 | 9.29555 | 13420 ft | 277 kts | 265° |
| 2026-04-30 19:58 | 53.66173 | 9.26420 | 13426 ft | 271 kts | 300° |
| 2026-04-30 19:58 | 53.67357 | 9.24083 | 13429 ft | 260 kts | 333° |
| 2026-04-30 19:58 | 53.69014 | 9.23157 | 13426 ft | 248 kts | 3° |
| 2026-04-30 19:59 | 53.70676 | 9.23672 | 13429 ft | 239 kts | 28° |
| 2026-04-30 19:59 | 53.72140 | 9.25032 | 13428 ft | 239 kts | 34° |
| 2026-04-30 19:59 | 53.75003 | 9.27853 | 13419 ft | 239 kts | 34° |
| 2026-04-30 20:00 | 53.76454 | 9.29279 | 13426 ft | 239 kts | 34° |
| 2026-04-30 20:00 | 53.77895 | 9.30695 | 13422 ft | 239 kts | 33° |
| 2026-04-30 20:00 | 53.79331 | 9.32106 | 13360 ft | 240 kts | 33° |
| 2026-04-30 20:00 | 53.80789 | 9.33539 | 13256 ft | 240 kts | 33° |
| 2026-04-30 20:01 | 53.82849 | 9.37608 | 13044 ft | 230 kts | 77° |
| 2026-04-30 20:01 | 53.82869 | 9.40310 | 12944 ft | 232 kts | 101° |
| 2026-04-30 20:01 | 53.82178 | 9.42783 | 12728 ft | 239 kts | 125° |
| 2026-04-30 20:02 | 53.79142 | 9.44905 | 12243 ft | 255 kts | 185° |
| 2026-04-30 20:02 | 53.77476 | 9.43748 | 12003 ft | 261 kts | 206° |
| 2026-04-30 20:03 | 53.74328 | 9.40605 | 11509 ft | 263 kts | 206° |
| 2026-04-30 20:03 | 53.72770 | 9.39067 | 11442 ft | 261 kts | 206° |
| 2026-04-30 20:03 | 53.71199 | 9.37521 | 11441 ft | 262 kts | 206° |
| 2026-04-30 20:03 | 53.69604 | 9.35952 | 11438 ft | 262 kts | 206° |
| 2026-04-30 20:04 | 53.68035 | 9.34409 | 11436 ft | 262 kts | 206° |
| 2026-04-30 20:04 | 53.66620 | 9.32490 | 11438 ft | 266 kts | 231° |
| 2026-04-30 20:04 | 53.65905 | 9.29589 | 11441 ft | 267 kts | 265° |
| 2026-04-30 20:05 | 53.67287 | 9.24214 | 11447 ft | 253 kts | 330° |
| 2026-04-30 20:05 | 53.68876 | 9.23198 | 11443 ft | 242 kts | 0° |
| 2026-04-30 20:05 | 53.71937 | 9.24823 | 11442 ft | 232 kts | 34° |
| 2026-04-30 20:06 | 53.73323 | 9.26237 | 11437 ft | 231 kts | 39° |
| 2026-04-30 20:06 | 53.74306 | 9.28332 | 11361 ft | 234 kts | 70° |
| 2026-04-30 20:06 | 53.74409 | 9.31063 | 11014 ft | 240 kts | 103° |
| 2026-04-30 20:06 | 53.73524 | 9.33476 | 10650 ft | 247 kts | 135° |
| 2026-04-30 20:07 | 53.72103 | 9.35158 | 10268 ft | 250 kts | 143° |
| 2026-04-30 20:07 | 53.70638 | 9.36693 | 9893 ft | 251 kts | 143° |
| 2026-04-30 20:07 | 53.67656 | 9.39803 | 9134 ft | 250 kts | 144° |
| 2026-04-30 20:08 | 53.66184 | 9.41342 | 8754 ft | 250 kts | 143° |
| 2026-04-30 20:08 | 53.64690 | 9.42900 | 8368 ft | 249 kts | 144° |
| 2026-04-30 20:08 | 53.63226 | 9.44430 | 7990 ft | 248 kts | 143° |
| 2026-04-30 20:08 | 53.61766 | 9.45965 | 7611 ft | 247 kts | 144° |
| 2026-04-30 20:09 | 53.60302 | 9.47508 | 7228 ft | 245 kts | 144° |
| 2026-04-30 20:09 | 53.58867 | 9.49020 | 6857 ft | 244 kts | 143° |
| 2026-04-30 20:09 | 53.56003 | 9.52051 | 6136 ft | 239 kts | 143° |
| 2026-04-30 20:10 | 53.52865 | 9.52803 | 5531 ft | 245 kts | 202° |
| 2026-04-30 20:10 | 53.51547 | 9.50939 | 5185 ft | 248 kts | 226° |
| 2026-04-30 20:10 | 53.50448 | 9.48690 | 4870 ft | 246 kts | 229° |
| 2026-04-30 20:11 | 53.48317 | 9.44244 | 4251 ft | 242 kts | 229° |
| 2026-04-30 20:11 | 53.47268 | 9.42056 | 4006 ft | 238 kts | 229° |
| 2026-04-30 20:11 | 53.46219 | 9.39861 | 3980 ft | 240 kts | 229° |
| 2026-04-30 20:12 | 53.43574 | 9.36909 | 3978 ft | 228 kts | 175° |
| 2026-04-30 20:12 | 53.42114 | 9.37692 | 3981 ft | 219 kts | 139° |
| 2026-04-30 20:12 | 53.41288 | 9.39758 | 3983 ft | 215 kts | 102° |
| 2026-04-30 20:13 | 53.41252 | 9.42267 | 3987 ft | 216 kts | 85° |
| 2026-04-30 20:13 | 53.41407 | 9.44783 | 3986 ft | 217 kts | 84° |
| 2026-04-30 20:13 | 53.41577 | 9.47310 | 3985 ft | 217 kts | 84° |
| 2026-04-30 20:13 | 53.41748 | 9.49838 | 3987 ft | 217 kts | 84° |
| 2026-04-30 20:14 | 53.41916 | 9.52380 | 3990 ft | 217 kts | 84° |
| 2026-04-30 20:14 | 53.42083 | 9.54928 | 3989 ft | 217 kts | 83° |
| 2026-04-30 20:14 | 53.42483 | 9.57353 | 3989 ft | 218 kts | 63° |
| 2026-04-30 20:14 | 53.43348 | 9.59417 | 3988 ft | 219 kts | 52° |
| 2026-04-30 20:15 | 53.44340 | 9.61354 | 3992 ft | 220 kts | 51° |
| 2026-04-30 20:15 | 53.45348 | 9.63332 | 3992 ft | 220 kts | 51° |
| 2026-04-30 20:15 | 53.46326 | 9.65275 | 3994 ft | 220 kts | 52° |
| 2026-04-30 20:15 | 53.47310 | 9.67238 | 3993 ft | 220 kts | 52° |
| 2026-04-30 20:16 | 53.48282 | 9.69175 | 3999 ft | 213 kts | 52° |
| 2026-04-30 20:16 | 53.49192 | 9.70989 | 4009 ft | 194 kts | 52° |
| 2026-04-30 20:16 | 53.50016 | 9.72636 | 3913 ft | 181 kts | 52° |
| 2026-04-30 20:16 | 53.50834 | 9.74278 | 3644 ft | 183 kts | 52° |
| 2026-04-30 20:17 | 53.51650 | 9.75913 | 3260 ft | 183 kts | 52° |
| 2026-04-30 20:17 | 53.52457 | 9.77530 | 2930 ft | 177 kts | 52° |
| 2026-04-30 20:17 | 53.53239 | 9.79097 | 2700 ft | 173 kts | 52° |
| 2026-04-30 20:17 | 53.54013 | 9.80652 | 2487 ft | 175 kts | 52° |
| 2026-04-30 20:18 | 53.54801 | 9.82233 | 2240 ft | 173 kts | 52° |
| 2026-04-30 20:18 | 53.55569 | 9.83776 | 2016 ft | 174 kts | 52° |
| 2026-04-30 20:18 | 53.56335 | 9.85314 | 1819 ft | 159 kts | 52° |
| 2026-04-30 20:18 | 53.56984 | 9.86612 | 1624 ft | 139 kts | 52° |
| 2026-04-30 20:19 | 53.57590 | 9.87831 | 1425 ft | 131 kts | 52° |
| 2026-04-30 20:19 | 53.58155 | 9.88972 | 1253 ft | 128 kts | 52° |
| 2026-04-30 20:19 | 53.58723 | 9.90119 | 1089 ft | 127 kts | 52° |
| 2026-04-30 20:19 | 53.59284 | 9.91249 | 920 ft | 127 kts | 51° |
| 2026-04-30 20:20 | 53.59856 | 9.92405 | 779 ft | 128 kts | 52° |
| 2026-04-30 20:20 | 53.60418 | 9.93547 | 578 ft | 128 kts | 51° |
| 2026-04-30 20:20 | 53.60980 | 9.94673 | 396 ft | 127 kts | 50° |
| 2026-04-30 20:20 | 53.61552 | 9.95815 | 251 ft | 126 kts | 51° |
| 2026-04-30 20:21 | 53.62108 | 9.96944 | 102 ft | 127 kts | 51° |
| 2026-04-30 20:21 | 53.62626 | 9.97994 | 61 ft | 104 kts | 50° |
| 2026-04-30 20:21 | 53.62944 | 9.98634 | 61 ft | 50 kts | 50° |
| 2026-04-30 20:21 | 53.63082 | 9.98992 | 61 ft | 24 kts | 77° |
| 2026-04-30 20:22 | 53.63090 | 9.99155 | 61 ft | 8 kts | 96° |
| 2026-04-30 20:22 | 53.63081 | 9.99200 | 61 ft | 1 kts | 122° |
| 2026-04-30 20:22 | 53.63081 | 9.99203 | 61 ft | 0 kts | 122° |
| 2026-04-30 20:22 | 53.63065 | 9.99230 | 61 ft | 5 kts | 150° |
| 2026-04-30 20:23 | 53.63017 | 9.99213 | 61 ft | 10 kts | 228° |
| 2026-04-30 20:23 | 53.62969 | 9.99116 | 61 ft | 7 kts | 230° |
| 2026-04-30 20:23 | 53.62921 | 9.99020 | 61 ft | 14 kts | 230° |
| 2026-04-30 20:23 | 53.62844 | 9.98865 | 61 ft | 19 kts | 231° |
| 2026-04-30 20:24 | 53.62814 | 9.98803 | 61 ft | 7 kts | 230° |
| 2026-04-30 20:24 | 53.62752 | 9.98835 | 61 ft | 12 kts | 153° |
| 2026-04-30 20:24 | 53.62735 | 9.98849 | 61 ft | 2 kts | 153° |
| 2026-04-30 20:24 | 53.62725 | 9.98880 | 61 ft | 4 kts | 59° |
| 2026-04-30 20:25 | 53.62741 | 9.98909 | 61 ft | 1 kts | 324° |
| 2026-04-30 20:25 | 53.62738 | 9.98889 | 61 ft | 0 kts | 232° |